createdAt,value
2019-05-18T00:01:16.056Z,41.53
2019-05-18T00:04:04.590Z,40.17
2019-05-18T00:06:52.641Z,40.73
2019-05-18T00:09:40.607Z,40.12
2019-05-18T00:12:28.874Z,40.50
2019-05-18T00:15:17.274Z,40.00
2019-05-18T00:18:05.751Z,40.30
2019-05-18T00:20:54.347Z,40.15
2019-05-18T00:23:42.806Z,40.28
2019-05-18T00:26:31.017Z,41.02
2019-05-18T00:29:19.339Z,39.83
2019-05-18T00:32:07.801Z,39.33
2019-05-18T00:34:57.275Z,39.33
2019-05-18T00:37:45.822Z,40.28
2019-05-18T00:40:34.247Z,40.10
2019-05-18T00:43:22.386Z,40.95
2019-05-18T00:46:10.980Z,39.75
2019-05-18T00:48:59.538Z,41.88
2019-05-18T00:51:48.018Z,51.42
2019-05-18T00:54:35.973Z,40.30
2019-05-18T00:57:24.370Z,40.78
2019-05-18T01:00:12.806Z,42.73
2019-05-18T01:03:01.123Z,39.15
2019-05-18T01:05:49.572Z,41.33
2019-05-18T01:08:37.838Z,39.08
2019-05-18T01:11:29.102Z,39.53
2019-05-18T01:14:17.454Z,41.65
2019-05-18T01:17:05.979Z,40.15
2019-05-18T01:19:54.546Z,39.38
2019-05-18T01:22:43.140Z,39.65
2019-05-18T01:25:31.519Z,41.63
2019-05-18T01:28:19.775Z,39.45
2019-05-18T01:31:07.976Z,39.50
2019-05-18T01:33:56.671Z,39.98
2019-05-18T01:36:44.979Z,40.88
2019-05-18T01:39:33.526Z,39.63
2019-05-18T01:42:21.987Z,40.23
2019-05-18T01:45:17.042Z,39.23
2019-05-18T01:48:12.647Z,40.00
2019-05-18T01:50:50.180Z,38.85
2019-05-18T01:53:38.601Z,40.35
2019-05-18T01:56:28.116Z,41.20
2019-05-18T01:59:16.370Z,39.78
2019-05-18T02:02:04.682Z,41.65
2019-05-18T02:04:53.126Z,40.28
2019-05-18T02:07:42.642Z,40.00
2019-05-18T02:10:30.963Z,42.67
2019-05-18T02:13:19.231Z,40.38
2019-05-18T02:16:07.559Z,39.45
2019-05-18T02:18:55.679Z,40.52
2019-05-18T02:21:43.855Z,39.80
2019-05-18T02:24:32.348Z,41.13
2019-05-18T02:27:20.953Z,39.30
2019-05-18T02:30:09.227Z,39.38
2019-05-18T02:32:57.555Z,39.60
2019-05-18T02:35:45.832Z,40.60
2019-05-18T02:38:34.007Z,39.80
2019-05-18T02:41:22.702Z,40.28
2019-05-18T02:44:11.272Z,39.13
2019-05-18T02:46:59.831Z,40.12
2019-05-18T02:49:48.342Z,40.17
2019-05-18T02:52:36.539Z,39.90
2019-05-18T02:55:26.272Z,41.02
2019-05-18T02:58:14.794Z,47.23
2019-05-18T03:01:04.121Z,40.00
2019-05-18T03:03:52.627Z,39.53
2019-05-18T03:06:41.000Z,40.50
2019-05-18T03:09:29.641Z,40.55
2019-05-18T03:12:18.486Z,40.20
2019-05-18T03:15:07.091Z,40.23
2019-05-18T03:17:55.272Z,39.35
2019-05-18T03:20:43.724Z,39.58
2019-05-18T03:23:32.044Z,42.55
2019-05-18T03:26:20.434Z,39.05
2019-05-18T03:29:10.014Z,39.23
2019-05-18T03:31:58.332Z,39.15
2019-05-18T03:34:46.929Z,39.78
2019-05-18T03:37:35.120Z,39.35
2019-05-18T03:40:23.438Z,38.78
2019-05-18T03:43:12.147Z,41.18
2019-05-18T03:46:00.611Z,40.08
2019-05-18T03:48:49.032Z,39.78
2019-05-18T03:51:37.274Z,40.25
2019-05-18T03:54:25.399Z,40.28
2019-05-18T03:57:13.685Z,39.27
2019-05-18T04:00:02.222Z,40.73
2019-05-18T04:02:52.312Z,39.20
2019-05-18T04:05:40.817Z,38.65
2019-05-18T04:08:29.184Z,39.20
2019-05-18T04:11:17.706Z,40.88
2019-05-18T04:14:08.281Z,39.75
2019-05-18T04:16:59.589Z,39.15
2019-05-18T04:19:47.923Z,41.05
2019-05-18T04:22:35.935Z,39.85
2019-05-18T04:25:24.078Z,39.53
2019-05-18T04:28:12.370Z,39.67
2019-05-18T04:31:00.670Z,38.73
2019-05-18T04:33:49.240Z,38.65
2019-05-18T04:36:37.798Z,40.03
2019-05-18T04:39:26.351Z,38.98
2019-05-18T04:42:14.548Z,39.23
2019-05-18T04:45:03.243Z,39.03
2019-05-18T04:47:51.373Z,39.58
2019-05-18T04:50:39.836Z,39.15
2019-05-18T04:53:28.023Z,38.20
2019-05-18T04:56:16.630Z,37.95
2019-05-18T04:59:05.048Z,38.67
2019-05-18T05:01:53.707Z,38.85
2019-05-18T05:04:41.987Z,49.75
2019-05-18T05:07:30.308Z,38.25
2019-05-18T05:10:18.854Z,38.65
2019-05-18T05:13:07.240Z,38.15
2019-05-18T05:15:55.511Z,40.35
2019-05-18T05:18:44.023Z,38.80
2019-05-18T05:21:32.363Z,40.17
2019-05-18T05:24:20.610Z,40.67
2019-05-18T05:27:08.851Z,38.78
2019-05-18T05:29:56.971Z,38.33
2019-05-18T05:32:45.307Z,40.65
2019-05-18T05:35:33.507Z,39.18
2019-05-18T05:38:22.015Z,41.92
2019-05-18T05:41:29.787Z,38.08
2019-05-18T05:44:18.456Z,186.20
2019-05-18T05:47:07.638Z,50.70
2019-05-18T05:49:55.911Z,56.85
2019-05-18T05:52:44.163Z,38.95
2019-05-18T05:55:32.459Z,40.30
2019-05-18T05:58:20.983Z,38.00
2019-05-18T06:01:09.275Z,40.10
2019-05-18T06:03:57.719Z,54.03
2019-05-18T06:06:45.915Z,50.40
2019-05-18T06:09:34.336Z,60.38
2019-05-18T06:12:22.580Z,47.93
2019-05-18T06:15:11.881Z,47.65
2019-05-18T06:18:00.348Z,44.60
2019-05-18T06:20:51.618Z,43.90
2019-05-18T06:23:39.943Z,43.80
2019-05-18T06:26:28.170Z,44.63
2019-05-18T06:29:16.364Z,43.85
2019-05-18T06:32:04.703Z,49.73
2019-05-18T06:34:52.927Z,50.05
2019-05-18T06:37:41.346Z,45.20
2019-05-18T06:40:29.540Z,58.52
2019-05-18T06:43:18.215Z,53.35
2019-05-18T06:46:07.843Z,51.90
2019-05-18T06:48:56.009Z,43.87
2019-05-18T06:51:44.491Z,50.28
2019-05-18T06:54:32.807Z,52.55
2019-05-18T06:57:21.719Z,45.85
2019-05-18T07:00:15.838Z,53.87
2019-05-18T07:03:04.723Z,51.63
2019-05-18T07:05:52.927Z,46.50
2019-05-18T07:08:41.306Z,52.05
2019-05-18T07:11:30.743Z,40.92
2019-05-18T07:14:25.895Z,45.43
2019-05-18T07:17:09.018Z,40.38
2019-05-18T07:19:57.259Z,41.33
2019-05-18T07:22:45.566Z,90.38
2019-05-18T07:25:34.097Z,45.38
2019-05-18T07:28:22.474Z,45.23
2019-05-18T07:31:11.394Z,49.38
2019-05-18T07:33:59.953Z,56.23
2019-05-18T07:36:48.199Z,38.80
2019-05-18T07:39:36.771Z,41.60
2019-05-18T07:42:25.098Z,40.83
2019-05-18T07:45:13.587Z,42.53
2019-05-18T07:48:01.798Z,40.75
2019-05-18T07:50:50.338Z,40.52
2019-05-18T07:53:38.586Z,71.12
2019-05-18T07:56:27.296Z,88.05
2019-05-18T07:59:15.476Z,62.23
2019-05-18T08:02:04.520Z,47.20
2019-05-18T08:04:54.297Z,54.60
2019-05-18T08:07:42.708Z,71.57
2019-05-18T08:10:55.189Z,46.10
2019-05-18T08:13:43.615Z,46.50
2019-05-18T08:16:32.105Z,58.33
2019-05-18T08:19:20.807Z,51.90
2019-05-18T08:22:10.502Z,70.87
2019-05-18T08:24:58.927Z,51.18
2019-05-18T08:27:47.865Z,72.42
2019-05-18T08:30:36.196Z,43.20
2019-05-18T08:33:24.514Z,57.27
2019-05-18T08:36:13.013Z,52.27
2019-05-18T08:39:01.337Z,43.83
2019-05-18T08:41:50.715Z,53.70
2019-05-18T08:44:51.784Z,50.65
2019-05-18T08:47:40.136Z,53.85
2019-05-18T08:50:28.658Z,67.90
2019-05-18T08:53:17.145Z,80.77
2019-05-18T08:56:06.495Z,46.05
2019-05-18T08:58:54.674Z,62.58
2019-05-18T09:01:42.911Z,42.67
2019-05-18T09:04:42.960Z,40.63
2019-05-18T09:07:31.260Z,42.95
2019-05-18T09:10:19.513Z,39.88
2019-05-18T09:13:07.750Z,40.75
2019-05-18T09:15:55.985Z,40.90
2019-05-18T09:18:45.323Z,40.98
2019-05-18T09:21:33.563Z,69.03
2019-05-18T09:24:21.593Z,42.58
2019-05-18T09:27:10.170Z,42.67
2019-05-18T09:29:58.383Z,42.00
2019-05-18T09:32:46.918Z,39.55
2019-05-18T09:35:35.474Z,40.90
2019-05-18T09:38:23.723Z,41.75
2019-05-18T09:41:11.928Z,51.90
2019-05-18T09:43:59.987Z,50.08
2019-05-18T09:46:48.479Z,51.10
2019-05-18T09:49:36.457Z,49.35
2019-05-18T09:52:43.490Z,59.83
2019-05-18T09:55:14.589Z,44.53
2019-05-18T09:58:02.888Z,49.93
2019-05-18T10:00:51.008Z,67.32
2019-05-18T10:03:39.250Z,67.00
2019-05-18T10:06:27.646Z,60.28
2019-05-18T10:09:16.135Z,44.95
2019-05-18T10:12:04.311Z,54.40
2019-05-18T10:14:52.565Z,51.77
2019-05-18T10:17:40.778Z,60.70
2019-05-18T10:20:29.395Z,70.12
2019-05-18T10:23:17.292Z,161.62
2019-05-18T10:26:05.576Z,43.55
2019-05-18T10:28:53.959Z,42.93
2019-05-18T10:31:42.196Z,60.40
2019-05-18T10:34:30.734Z,45.35
2019-05-18T10:37:18.950Z,45.43
2019-05-18T10:40:08.255Z,45.70
2019-05-18T10:42:56.861Z,45.55
2019-05-18T10:45:45.495Z,44.80
2019-05-18T10:48:34.066Z,46.80
2019-05-18T10:51:22.433Z,45.20
2019-05-18T10:54:10.691Z,45.03
2019-05-18T10:56:59.155Z,61.65
2019-05-18T11:00:12.078Z,124.07
2019-05-18T11:03:00.503Z,47.17
2019-05-18T11:05:48.738Z,46.70
2019-05-18T11:08:38.468Z,47.98
2019-05-18T11:11:27.928Z,46.40
2019-05-18T11:14:18.764Z,131.18
2019-05-18T11:17:05.776Z,68.90
2019-05-18T11:19:54.232Z,55.90
2019-05-18T11:22:43.603Z,52.95
2019-05-18T11:25:32.055Z,50.43
2019-05-18T11:28:20.667Z,52.48
2019-05-18T11:31:09.142Z,49.80
2019-05-18T11:34:00.264Z,47.95
2019-05-18T11:36:48.752Z,47.27
2019-05-18T11:42:43.630Z,47.17
2019-05-18T11:45:32.173Z,75.22
2019-05-18T11:48:20.657Z,46.53
2019-05-18T11:51:09.244Z,57.80
2019-05-18T11:53:58.683Z,47.53
2019-05-18T11:56:47.034Z,49.93
2019-05-18T11:59:35.572Z,48.98
2019-05-18T12:02:24.120Z,46.53
2019-05-18T12:05:12.951Z,59.05
2019-05-18T12:08:01.333Z,93.60
2019-05-18T12:10:49.842Z,68.37
2019-05-18T12:13:38.303Z,67.40
2019-05-18T12:16:26.696Z,84.20
2019-05-18T12:19:14.987Z,63.83
2019-05-18T12:22:03.597Z,50.58
2019-05-18T12:24:51.860Z,57.48
2019-05-18T12:27:40.267Z,68.00
2019-05-18T12:30:28.571Z,52.05
2019-05-18T12:33:18.936Z,56.65
2019-05-18T12:36:07.669Z,60.15
2019-05-18T12:38:55.935Z,91.72
2019-05-18T12:41:44.359Z,66.85
2019-05-18T12:44:32.529Z,71.22
2019-05-18T12:47:22.249Z,61.55
2019-05-18T12:50:10.817Z,49.20
2019-05-18T12:52:59.074Z,54.65
2019-05-18T12:56:23.581Z,65.05
2019-05-18T12:59:30.029Z,59.58
2019-05-18T13:02:19.114Z,53.38
2019-05-18T13:05:07.453Z,61.25
2019-05-18T13:07:55.553Z,52.83
2019-05-18T13:10:43.999Z,47.05
2019-05-18T13:13:32.525Z,85.40
2019-05-18T13:16:20.841Z,62.75
2019-05-18T13:19:09.394Z,65.75
2019-05-18T13:21:57.759Z,67.70
2019-05-18T13:24:46.001Z,50.60
2019-05-18T13:27:39.226Z,50.12
2019-05-18T13:30:24.460Z,83.35
2019-05-18T13:33:12.722Z,51.05
2019-05-18T13:39:15.837Z,83.03
2019-05-18T13:42:04.312Z,66.28
2019-05-18T13:44:52.642Z,104.35
2019-05-18T13:47:41.066Z,115.42
2019-05-18T13:50:29.712Z,113.55
2019-05-18T13:53:17.959Z,76.92
2019-05-18T13:56:06.246Z,84.45
2019-05-18T13:58:54.518Z,79.22
2019-05-18T14:01:43.003Z,76.97
2019-05-18T14:04:31.682Z,79.77
2019-05-18T14:07:20.257Z,163.05
2019-05-18T14:10:08.670Z,54.88
2019-05-18T14:12:57.070Z,58.63
2019-05-18T14:15:45.354Z,91.08
2019-05-18T14:18:33.826Z,73.28
2019-05-18T14:21:22.416Z,105.47
2019-05-18T14:24:10.458Z,64.07
2019-05-18T14:26:58.759Z,60.33
2019-05-18T14:29:46.940Z,57.98
2019-05-18T14:32:35.179Z,62.85
2019-05-18T14:35:23.950Z,79.12
2019-05-18T14:38:12.759Z,59.13
2019-05-18T14:41:01.828Z,124.15
2019-05-18T14:43:50.135Z,85.07
2019-05-18T14:46:38.668Z,86.50
2019-05-18T14:49:27.343Z,113.03
2019-05-18T14:52:15.488Z,116.60
2019-05-18T14:55:04.642Z,92.72
2019-05-18T14:57:54.469Z,86.37
2019-05-18T15:00:42.661Z,95.30
2019-05-18T15:03:30.935Z,69.82
2019-05-18T15:06:19.283Z,83.87
2019-05-18T15:09:07.816Z,68.25
2019-05-18T15:11:56.431Z,83.95
2019-05-18T15:14:45.523Z,70.15
2019-05-18T15:17:34.065Z,59.40
2019-05-18T15:20:22.271Z,60.25
2019-05-18T15:23:10.730Z,103.97
2019-05-18T15:25:59.061Z,87.85
2019-05-18T15:28:47.774Z,80.03
2019-05-18T15:31:36.072Z,76.57
2019-05-18T15:34:24.355Z,62.93
2019-05-18T15:37:12.493Z,78.30
2019-05-18T15:40:01.087Z,58.08
2019-05-18T15:42:52.118Z,55.73
2019-05-18T15:45:40.868Z,74.35
2019-05-18T15:48:29.447Z,57.45
2019-05-18T15:51:17.515Z,58.73
2019-05-18T15:54:06.491Z,64.65
2019-05-18T15:57:07.284Z,124.05
2019-05-18T15:59:55.733Z,113.22
2019-05-18T16:02:44.127Z,71.25
2019-05-18T16:05:32.735Z,79.32
2019-05-18T16:08:21.090Z,69.50
2019-05-18T16:11:09.527Z,58.08
2019-05-18T16:13:57.838Z,61.35
2019-05-18T16:16:45.979Z,53.73
2019-05-18T16:19:34.311Z,57.85
2019-05-18T16:22:22.526Z,50.95
2019-05-18T16:25:11.101Z,55.08
2019-05-18T16:27:59.303Z,49.35
2019-05-18T16:30:48.314Z,50.15
2019-05-18T16:33:36.651Z,95.15
2019-05-18T16:36:25.148Z,67.80
2019-05-18T16:39:13.865Z,100.18
2019-05-18T16:42:21.301Z,137.75
2019-05-18T16:45:10.538Z,145.97
2019-05-18T16:47:58.764Z,88.37
2019-05-18T16:50:47.441Z,68.22
2019-05-18T16:53:35.741Z,107.52
2019-05-18T16:56:34.528Z,346.77
2019-05-18T16:59:20.070Z,344.60
2019-05-18T17:02:12.155Z,165.95
2019-05-18T17:05:01.331Z,184.05
2019-05-18T17:07:50.083Z,88.87
2019-05-18T17:10:42.827Z,205.75
2019-05-18T17:13:37.054Z,132.95
2019-05-18T17:16:28.107Z,150.27
2019-05-18T17:19:19.639Z,106.63
2019-05-18T17:22:08.001Z,97.47
2019-05-18T17:24:56.329Z,176.02
2019-05-18T17:27:46.428Z,141.30
2019-05-18T17:30:34.926Z,163.62
2019-05-18T17:33:23.174Z,207.52
2019-05-18T17:36:19.723Z,146.72
2019-05-18T17:39:08.671Z,99.97
2019-05-18T17:42:00.228Z,116.57
2019-05-18T17:44:54.733Z,121.80
2019-05-18T17:47:45.175Z,174.20
2019-05-18T17:50:33.666Z,160.78
2019-05-18T17:53:22.305Z,108.07
2019-05-18T17:56:10.983Z,121.70
2019-05-18T17:58:59.355Z,108.97
2019-05-18T18:01:47.935Z,182.93
2019-05-18T18:04:36.333Z,156.20
2019-05-18T18:07:24.859Z,212.45
2019-05-18T18:10:13.655Z,185.15
2019-05-18T18:13:02.227Z,85.30
2019-05-18T18:15:51.565Z,175.35
2019-05-18T18:18:39.588Z,122.98
2019-05-18T18:21:27.986Z,108.27
2019-05-18T18:24:20.782Z,150.07
2019-05-18T18:27:24.212Z,112.47
2019-05-18T18:30:00.040Z,169.35
2019-05-18T18:32:48.206Z,179.97
2019-05-18T18:35:39.550Z,190.15
2019-05-18T18:38:26.851Z,92.37
2019-05-18T18:41:15.167Z,102.60
2019-05-18T18:44:04.131Z,111.65
2019-05-18T18:46:52.397Z,133.65
2019-05-18T18:49:40.866Z,110.50
2019-05-18T18:52:29.190Z,147.25
2019-05-18T18:55:17.901Z,153.45
2019-05-18T18:58:06.408Z,133.75
2019-05-18T19:00:54.802Z,123.72
2019-05-18T19:03:43.235Z,158.60
2019-05-18T19:06:37.719Z,132.90
2019-05-18T19:09:25.828Z,122.25
2019-05-18T19:12:15.388Z,189.93
2019-05-18T19:15:08.337Z,228.60
2019-05-18T19:17:57.233Z,143.25
2019-05-18T19:20:48.735Z,157.80
2019-05-18T19:23:40.608Z,136.70
2019-05-18T19:26:28.763Z,122.07
2019-05-18T19:29:18.170Z,129.40
2019-05-18T19:32:07.344Z,177.25
2019-05-18T19:34:55.830Z,153.85
2019-05-18T19:37:43.937Z,169.43
2019-05-18T19:40:32.458Z,124.25
2019-05-18T19:43:20.575Z,168.52
2019-05-18T19:46:09.079Z,148.82
2019-05-18T19:48:57.460Z,119.30
2019-05-18T19:51:45.716Z,125.22
2019-05-18T19:54:33.960Z,126.65
2019-05-18T19:57:22.206Z,104.05
2019-05-18T20:00:10.935Z,119.77
2019-05-18T20:02:59.363Z,86.15
2019-05-18T20:05:47.384Z,84.75
2019-05-18T20:08:35.658Z,95.35
2019-05-18T20:11:23.941Z,82.45
2019-05-18T20:14:12.576Z,112.03
2019-05-18T20:17:00.895Z,100.58
2019-05-18T20:19:49.374Z,94.25
2019-05-18T20:22:38.298Z,83.75
2019-05-18T20:25:26.619Z,77.70
2019-05-18T20:28:23.294Z,91.80
2019-05-18T20:31:04.817Z,84.37
2019-05-18T20:33:54.654Z,90.45
2019-05-18T20:36:43.765Z,75.30
2019-05-18T20:39:31.950Z,82.27
2019-05-18T20:42:20.148Z,84.20
2019-05-18T20:45:08.131Z,80.62
2019-05-18T20:47:56.368Z,80.70
2019-05-18T20:50:44.854Z,88.50
2019-05-18T20:53:33.401Z,73.22
2019-05-18T20:56:22.124Z,87.47
2019-05-18T20:59:10.293Z,658.42
2019-05-18T21:01:58.649Z,496.85
2019-05-18T21:04:47.175Z,259.65
2019-05-18T21:07:35.814Z,249.60
2019-05-18T21:10:24.486Z,290.75
2019-05-18T21:13:13.024Z,278.32
2019-05-18T21:16:01.295Z,260.63
2019-05-18T21:18:49.656Z,256.90
2019-05-18T21:21:38.352Z,255.37
2019-05-18T21:24:26.614Z,249.98
2019-05-18T21:27:14.909Z,234.27
2019-05-18T21:30:02.870Z,225.75
2019-05-18T21:32:51.494Z,233.07
2019-05-18T21:35:39.826Z,235.85
2019-05-18T21:38:28.096Z,241.50
2019-05-18T21:41:16.705Z,216.30
2019-05-18T21:44:04.963Z,217.70
2019-05-18T21:46:53.398Z,207.70
2019-05-18T21:49:41.666Z,206.57
2019-05-18T21:52:29.894Z,207.72
2019-05-18T21:55:18.255Z,194.45
2019-05-18T21:58:06.923Z,199.93
2019-05-18T22:00:56.664Z,193.25
2019-05-18T22:04:04.488Z,186.65
2019-05-18T22:06:52.822Z,180.48
2019-05-18T22:09:40.957Z,177.17
2019-05-18T22:12:29.640Z,186.85
2019-05-18T22:15:19.995Z,181.57
2019-05-18T22:18:22.202Z,168.87
2019-05-18T22:21:11.852Z,175.27
2019-05-18T22:24:00.087Z,177.17
2019-05-18T22:26:48.655Z,169.72
2019-05-18T22:29:37.307Z,164.67
2019-05-18T22:32:25.939Z,168.30
2019-05-18T22:35:14.507Z,159.12
2019-05-18T22:38:02.810Z,159.10
2019-05-18T22:40:50.792Z,150.93
2019-05-18T22:43:39.194Z,151.93
2019-05-18T22:46:29.647Z,145.82
2019-05-18T22:49:18.114Z,141.45
2019-05-18T22:52:06.079Z,145.12
2019-05-18T22:54:54.632Z,135.65
2019-05-18T22:57:43.776Z,141.65
2019-05-18T23:04:04.679Z,232.03
2019-05-18T23:06:52.894Z,137.70
2019-05-18T23:09:41.588Z,123.00
2019-05-18T23:12:30.027Z,122.10
2019-05-18T23:15:18.291Z,140.62
2019-05-18T23:18:06.783Z,117.03
2019-05-18T23:20:55.366Z,129.42
2019-05-18T23:23:43.631Z,122.20
2019-05-18T23:26:31.894Z,119.02
2019-05-18T23:29:20.143Z,110.00
2019-05-18T23:32:08.670Z,113.22
2019-05-18T23:34:57.419Z,105.63
2019-05-18T23:37:45.599Z,108.70
2019-05-18T23:40:33.902Z,110.05
2019-05-18T23:43:22.164Z,115.65
2019-05-18T23:46:10.775Z,101.95
2019-05-18T23:49:10.043Z,104.55
2019-05-18T23:51:49.164Z,95.47
2019-05-18T23:54:37.155Z,104.50
2019-05-18T23:57:25.685Z,133.52
